createdAt,value
2019-04-28T00:02:12.490Z,3.75
2019-04-28T00:07:16.692Z,4.95
2019-04-28T00:12:21.014Z,5.90
2019-04-28T00:17:26.808Z,5.15
2019-04-28T00:22:44.299Z,5.17
2019-04-28T00:27:48.476Z,6.00
2019-04-28T00:32:52.666Z,5.65
2019-04-28T00:37:56.837Z,5.95
2019-04-28T00:43:01.044Z,5.75
2019-04-28T00:48:05.315Z,6.47
2019-04-28T00:53:09.503Z,6.45
2019-04-28T00:58:13.688Z,6.83
2019-04-28T01:03:17.858Z,6.47
2019-04-28T01:08:22.071Z,6.83
2019-04-28T01:13:26.261Z,7.85
2019-04-28T01:18:40.509Z,8.63
2019-04-28T01:23:44.787Z,14.23
2019-04-28T01:28:49.700Z,12.80
2019-04-28T01:34:20.422Z,9.60
2019-04-28T01:39:25.764Z,10.57
2019-04-28T01:44:29.965Z,9.10
2019-04-28T01:49:34.285Z,10.60
2019-04-28T01:54:40.072Z,9.78
2019-04-28T01:59:44.625Z,9.90
2019-04-28T02:04:49.881Z,9.20
2019-04-28T02:09:54.416Z,9.23
2019-04-28T02:15:00.603Z,9.80
2019-04-28T02:20:05.181Z,9.63
2019-04-28T02:25:10.001Z,9.57
2019-04-28T02:30:14.459Z,10.23
2019-04-28T02:35:21.175Z,10.93
2019-04-28T02:40:24.663Z,11.50
2019-04-28T02:45:31.371Z,14.80
2019-04-28T02:50:50.952Z,11.40
2019-04-28T02:55:54.842Z,11.23
2019-04-28T03:01:11.285Z,9.40
2019-04-28T03:06:05.004Z,16.03
2019-04-28T03:11:10.683Z,12.40
2019-04-28T03:16:15.059Z,14.33
2019-04-28T03:21:21.351Z,13.43
2019-04-28T03:26:37.849Z,13.57
2019-04-28T03:32:25.292Z,14.67
2019-04-28T03:37:12.956Z,11.77
2019-04-28T03:42:17.167Z,12.17
2019-04-28T03:47:21.685Z,15.23
2019-04-28T03:52:25.982Z,13.43
2019-04-28T03:57:31.344Z,12.17
2019-04-28T04:02:35.863Z,11.10
2019-04-28T04:07:42.805Z,10.60
2019-04-28T04:12:53.684Z,10.30
2019-04-28T04:18:03.232Z,10.17
2019-04-28T04:23:07.422Z,10.73
2019-04-28T04:28:11.622Z,9.67
2019-04-28T04:33:15.803Z,10.63
2019-04-28T04:38:21.722Z,10.77
2019-04-28T04:43:26.028Z,11.23
2019-04-28T04:48:31.142Z,10.50
2019-04-28T04:53:35.491Z,11.20
2019-04-28T04:58:40.628Z,11.07
2019-04-28T05:03:46.827Z,11.53
2019-04-28T05:08:51.032Z,9.97
2019-04-28T05:13:55.222Z,10.00
2019-04-28T05:19:00.133Z,10.13
2019-04-28T05:24:30.398Z,9.37
2019-04-28T05:29:34.744Z,9.83
2019-04-28T05:34:41.405Z,10.00
2019-04-28T05:39:44.850Z,9.70
2019-04-28T05:44:49.639Z,8.20
2019-04-28T05:50:11.865Z,8.47
2019-04-28T05:55:20.433Z,9.10
2019-04-28T06:01:00.286Z,8.03
2019-04-28T06:06:04.604Z,8.50
2019-04-28T06:11:26.568Z,8.90
2019-04-28T06:16:30.772Z,9.37
2019-04-28T06:21:35.076Z,10.37
2019-04-28T06:26:39.302Z,10.10
2019-04-28T06:31:43.530Z,9.57
2019-04-28T06:36:47.705Z,10.73
2019-04-28T06:41:51.899Z,9.87
2019-04-28T06:46:56.075Z,10.97
2019-04-28T06:52:00.385Z,11.07
2019-04-28T06:57:04.596Z,11.70
2019-04-28T07:02:08.779Z,11.37
2019-04-28T07:07:12.975Z,11.57
2019-04-28T07:12:17.164Z,11.60
2019-04-28T07:17:21.351Z,11.70
2019-04-28T07:22:27.543Z,10.73
2019-04-28T07:27:31.756Z,10.60
2019-04-28T07:32:35.938Z,9.83
2019-04-28T07:37:40.120Z,9.10
2019-04-28T07:42:44.299Z,8.40
2019-04-28T07:47:48.487Z,7.83
2019-04-28T07:53:05.024Z,8.00
2019-04-28T07:58:09.245Z,7.23
2019-04-28T08:03:13.441Z,6.83
2019-04-28T08:08:17.646Z,7.40
2019-04-28T08:13:21.831Z,7.13
2019-04-28T08:18:26.035Z,8.47
2019-04-28T08:23:30.225Z,9.97
2019-04-28T08:28:34.425Z,8.10
2019-04-28T08:34:02.742Z,8.77
2019-04-28T08:39:06.158Z,6.63
2019-04-28T08:44:10.369Z,7.27
2019-04-28T08:49:14.591Z,5.83
2019-04-28T08:54:18.782Z,8.23
2019-04-28T08:59:22.973Z,7.63
2019-04-28T09:04:27.155Z,8.83
2019-04-28T09:09:31.357Z,7.80
2019-04-28T09:14:35.675Z,7.37
2019-04-28T09:19:42.315Z,7.20
2019-04-28T09:24:45.798Z,7.20
2019-04-28T09:29:49.978Z,5.60
2019-04-28T09:34:54.154Z,5.60
2019-04-28T09:40:09.552Z,4.75
2019-04-28T09:45:18.079Z,4.63
2019-04-28T09:50:22.301Z,4.60
2019-04-28T09:55:26.517Z,4.80
2019-04-28T10:00:30.713Z,4.03
2019-04-28T10:05:34.907Z,4.47
2019-04-28T10:10:39.112Z,5.17
2019-04-28T10:15:43.490Z,5.17
2019-04-28T10:20:47.707Z,4.97
2019-04-28T10:25:51.899Z,4.47
2019-04-28T10:30:56.103Z,4.15
2019-04-28T10:36:00.299Z,3.77
2019-04-28T10:41:09.275Z,4.70
2019-04-28T10:46:13.456Z,4.10
2019-04-28T10:51:17.643Z,3.83
2019-04-28T10:56:21.827Z,4.45
2019-04-28T11:01:26.043Z,3.50
2019-04-28T11:06:30.232Z,3.25
2019-04-28T11:11:34.517Z,3.72
2019-04-28T11:16:39.088Z,3.85
2019-04-28T11:21:43.402Z,3.80
2019-04-28T11:26:47.612Z,3.72
2019-04-28T11:31:51.790Z,3.67
2019-04-28T11:36:56.049Z,3.83
2019-04-28T11:42:00.297Z,3.33
2019-04-28T11:47:06.737Z,2.98
2019-04-28T11:52:11.047Z,4.03
2019-04-28T11:57:15.286Z,3.25
2019-04-28T12:02:19.681Z,3.25
2019-04-28T12:07:24.280Z,3.47
2019-04-28T12:12:38.069Z,3.45
2019-04-28T12:18:04.179Z,2.62
2019-04-28T12:23:09.859Z,2.35
2019-04-28T12:28:14.225Z,2.52
2019-04-28T12:33:18.424Z,2.40
2019-04-28T12:38:22.621Z,2.30
2019-04-28T12:43:27.789Z,2.00
2019-04-28T12:48:32.750Z,2.50
2019-04-28T12:53:37.026Z,2.50
2019-04-28T12:58:41.228Z,2.70
2019-04-28T13:04:11.320Z,2.85
2019-04-28T13:09:15.653Z,3.02
2019-04-28T13:14:19.842Z,2.70
2019-04-28T13:19:24.087Z,3.40
2019-04-28T13:24:28.300Z,3.35
2019-04-28T13:29:33.092Z,2.70
2019-04-28T13:34:39.468Z,2.90
2019-04-28T13:39:59.887Z,4.37
2019-04-28T13:45:11.379Z,2.20
2019-04-28T13:50:23.891Z,2.00
2019-04-28T13:55:53.080Z,2.20
2019-04-28T14:01:22.098Z,2.02
2019-04-28T14:06:28.762Z,2.40
2019-04-28T14:11:33.195Z,1.85
2019-04-28T14:16:37.388Z,2.95
2019-04-28T14:21:41.637Z,1.35
2019-04-28T14:26:45.970Z,1.87
2019-04-28T14:31:50.197Z,1.90
2019-04-28T14:36:54.422Z,1.92
2019-04-28T14:41:58.644Z,1.95
2019-04-28T14:47:02.858Z,1.92
2019-04-28T14:52:07.001Z,1.70
2019-04-28T14:57:11.193Z,1.70
2019-04-28T15:02:37.245Z,1.60
2019-04-28T15:08:00.349Z,2.08
2019-04-28T15:13:05.216Z,1.98
2019-04-28T15:18:09.510Z,2.10
2019-04-28T15:23:13.681Z,1.80
2019-04-28T15:28:17.905Z,2.37
2019-04-28T15:33:22.091Z,1.95
2019-04-28T15:38:26.295Z,2.20
2019-04-28T15:43:30.513Z,1.75
2019-04-28T15:48:34.731Z,1.65
2019-04-28T15:53:38.941Z,1.80
2019-04-28T15:58:43.130Z,1.80
2019-04-28T16:03:47.340Z,2.87
2019-04-28T16:08:51.542Z,2.02
2019-04-28T16:13:55.737Z,2.37
2019-04-28T16:19:00.023Z,2.10
2019-04-28T16:24:04.511Z,1.65
2019-04-28T16:29:08.753Z,2.62
2019-04-28T16:34:12.986Z,2.62
2019-04-28T16:39:17.203Z,2.10
2019-04-28T16:44:28.490Z,1.80
2019-04-28T16:49:32.785Z,2.80
2019-04-28T16:54:36.983Z,1.77
2019-04-28T16:59:58.376Z,1.72
2019-04-28T17:05:02.640Z,1.50
2019-04-28T17:10:07.241Z,1.57
2019-04-28T17:15:12.277Z,1.77
2019-04-28T17:20:16.728Z,2.92
2019-04-28T17:25:21.052Z,2.02
2019-04-28T17:30:25.473Z,1.90
2019-04-28T17:35:29.807Z,1.90
2019-04-28T17:40:34.488Z,2.30
2019-04-28T17:45:38.775Z,2.00
2019-04-28T17:50:45.325Z,2.20
2019-04-28T17:55:49.168Z,2.50
2019-04-28T18:01:24.557Z,1.98
2019-04-28T18:06:29.954Z,1.92
2019-04-28T18:11:34.206Z,2.40
2019-04-28T18:16:56.553Z,2.30
2019-04-28T18:22:00.930Z,3.10
2019-04-28T18:27:05.141Z,2.80
2019-04-28T18:32:27.071Z,2.30
2019-04-28T18:37:50.505Z,2.90
2019-04-28T18:43:01.850Z,2.62
2019-04-28T18:48:06.471Z,2.30
2019-04-28T18:53:12.384Z,2.20
2019-04-28T18:58:16.748Z,2.12
2019-04-28T19:03:21.342Z,3.00
2019-04-28T19:08:49.444Z,4.25
2019-04-28T19:13:54.260Z,3.47
2019-04-28T19:19:01.202Z,2.52
2019-04-28T19:24:13.752Z,2.50
2019-04-28T19:29:18.895Z,2.60
2019-04-28T19:34:25.986Z,2.80
2019-04-28T19:39:31.955Z,3.00
2019-04-28T19:44:37.005Z,2.90
2019-04-28T19:49:41.507Z,2.60
2019-04-28T19:55:23.527Z,3.15
2019-04-28T20:00:37.088Z,3.33
2019-04-28T20:05:42.106Z,3.10
2019-04-28T20:10:46.733Z,3.30
2019-04-28T20:15:51.278Z,3.27
2019-04-28T20:20:55.675Z,2.87
2019-04-28T20:25:59.947Z,3.33
2019-04-28T20:31:04.193Z,3.70
2019-04-28T20:36:14.746Z,3.57
2019-04-28T20:41:22.804Z,3.90
2019-04-28T20:46:27.059Z,4.23
2019-04-28T20:51:31.328Z,5.30
2019-04-28T20:56:35.485Z,3.60
2019-04-28T21:01:39.695Z,4.37
2019-04-28T21:06:44.028Z,3.73
2019-04-28T21:11:48.220Z,3.20
2019-04-28T21:16:52.419Z,3.73
2019-04-28T21:21:56.610Z,4.10
2019-04-28T21:27:00.824Z,3.93
2019-04-28T21:32:05.022Z,4.20
2019-04-28T21:37:09.365Z,4.80
2019-04-28T21:42:17.035Z,4.40
2019-04-28T21:47:24.807Z,4.60
2019-04-28T21:52:29.020Z,5.07
2019-04-28T21:57:33.201Z,5.07
2019-04-28T22:02:37.409Z,5.00
2019-04-28T22:07:41.749Z,4.50
2019-04-28T22:12:45.927Z,5.10
2019-04-28T22:17:50.123Z,5.50
2019-04-28T22:22:54.329Z,5.07
2019-04-28T22:27:58.526Z,6.30
2019-04-28T22:33:02.722Z,5.87
2019-04-28T22:38:06.929Z,6.43
2019-04-28T22:43:11.243Z,6.20
2019-04-28T22:48:17.221Z,5.50
2019-04-28T22:53:25.138Z,5.13
2019-04-28T22:58:39.297Z,5.93
2019-04-28T23:04:14.634Z,5.33
2019-04-28T23:09:20.744Z,5.33
2019-04-28T23:14:27.757Z,6.17
2019-04-28T23:19:54.230Z,6.23
2019-04-28T23:25:15.297Z,5.53
2019-04-28T23:36:49.714Z,6.37
2019-04-28T23:42:14.542Z,5.70
2019-04-28T23:47:18.733Z,6.37
2019-04-28T23:52:50.707Z,6.27
2019-04-28T23:58:32.895Z,6.93
